Time;durP1;ratioP1;P1;durP2;ratioP2;P2;SDS_P1;SDS_P2;PMS_P1;PMS_P2;Temp;Humidity;BMP_temperature;BMP_pressure;BME280_temperature;BME280_humidity;BME280_pressure;Samples;Min_cycle;Max_cycle;Signal;HPM_P1;HPM_P2
2023/03/09 00:01:26;;;;;;;3.17;2.65;;;;;;;-0.60;78.03;147181.03;5128421;27;20043;-64
2023/03/09 00:03:51;;;;;;;3.92;2.45;;;;;;;-0.53;78.41;147197.50;5123486;28;20110;-64
2023/03/09 00:06:17;;;;;;;3.30;2.58;;;;;;;-0.58;78.23;147184.81;5117909;28;20028;-64
2023/03/09 00:08:43;;;;;;;3.50;2.78;;;;;;;-0.55;78.70;147192.44;5123411;28;20023;-64
2023/03/09 00:11:08;;;;;;;3.45;2.58;;;;;;;-0.57;77.12;147187.34;5106539;28;20051;-62
2023/03/09 00:13:34;;;;;;;3.67;3.00;;;;;;;-0.63;77.07;147173.34;5119796;27;20027;-63
2023/03/09 00:16:08;;;;;;;3.05;2.63;;;;;;;-0.65;77.06;147168.28;5108293;28;20035;-62
2023/03/09 00:18:34;;;;;;;3.72;2.65;;;;;;;-0.70;77.86;147156.88;5103838;28;20073;-62
2023/03/09 00:20:59;;;;;;;6.30;2.50;;;;;;;-0.68;78.20;147160.69;5110207;28;20028;-64
2023/03/09 00:23:25;;;;;;;2.60;2.20;;;;;;;-0.66;78.32;147164.50;5123809;27;20027;-64
2023/03/09 00:25:50;;;;;;;4.85;2.80;;;;;;;-0.72;78.57;147150.50;5133316;27;20046;-63
2023/03/09 00:28:16;;;;;;;3.90;2.70;;;;;;;-0.70;78.80;147155.56;5143357;27;20033;-64
2023/03/09 00:30:41;;;;;;;3.78;3.00;;;;;;;-0.81;78.83;147128.91;5147614;27;20039;-64
2023/03/09 00:33:07;;;;;;;3.13;2.72;;;;;;;-0.81;79.33;147127.63;5126567;27;20196;-64
2023/03/09 00:35:36;;;;;;;3.88;2.50;;;;;;;-0.87;78.71;147114.94;5106654;28;20049;-64
2023/03/09 00:38:03;;;;;;;4.18;2.70;;;;;;;-0.83;78.61;147123.81;5143292;27;20031;-64
2023/03/09 00:40:29;;;;;;;3.67;2.78;;;;;;;-0.72;78.40;147151.75;5143094;28;20307;-63
2023/03/09 00:42:54;;;;;;;3.05;2.58;;;;;;;-0.75;78.62;147144.16;5153124;27;20026;-63
2023/03/09 00:45:22;;;;;;;2.97;2.63;;;;;;;-0.68;79.42;147160.69;5143812;27;20018;-62
2023/03/09 00:47:48;;;;;;;3.45;2.90;;;;;;;-0.73;78.41;147147.97;5143635;27;20027;-63
2023/03/09 00:50:14;;;;;;;4.60;2.85;;;;;;;-0.72;77.65;147151.75;5153669;27;20027;-63
2023/03/09 00:52:40;;;;;;;3.55;2.72;;;;;;;-0.73;78.01;147149.25;5145052;27;20039;-62
2023/03/09 00:55:06;;;;;;;4.00;2.65;;;;;;;-0.68;78.54;147160.69;5152964;27;20027;-63
2023/03/09 00:57:32;;;;;;;3.70;2.70;;;;;;;-0.65;78.56;147168.28;5144649;27;20026;-63
2023/03/09 00:59:57;;;;;;;5.75;2.97;;;;;;;-0.72;77.47;147150.50;5145046;27;20026;-63
2023/03/09 01:02:23;;;;;;;3.38;2.70;;;;;;;-0.81;78.88;147127.63;5145446;27;20389;-63
2023/03/09 01:04:50;;;;;;;2.97;2.67;;;;;;;-0.77;77.64;147139.09;5142095;28;20035;-63
2023/03/09 01:07:16;;;;;;;5.75;2.90;;;;;;;-0.68;78.74;147160.69;5144287;27;20061;-63
2023/03/09 01:09:42;;;;;;;4.25;2.88;;;;;;;-0.80;79.02;147130.16;5145980;27;20023;-63
2023/03/09 01:12:08;;;;;;;2.90;2.28;;;;;;;-0.80;77.41;147131.44;5127774;27;20094;-63
2023/03/09 01:14:35;;;;;;;4.63;3.20;;;;;;;-0.74;78.71;147145.41;5133087;28;20330;-63
2023/03/09 01:17:01;;;;;;;2.83;2.63;;;;;;;-0.62;77.87;147175.91;5140786;28;20031;-64
2023/03/09 01:19:28;;;;;;;3.80;2.92;;;;;;;-0.59;77.38;147182.28;5149493;27;20022;-64
2023/03/09 01:21:53;;;;;;;3.03;2.72;;;;;;;-0.55;77.39;147192.44;5142462;28;20039;-63
2023/03/09 01:24:19;;;;;;;3.33;2.78;;;;;;;-0.68;77.70;147159.38;5138083;28;20066;-63
2023/03/09 01:26:44;;;;;;;3.92;3.25;;;;;;;-0.83;76.49;147122.56;5142472;28;20095;-63
2023/03/09 01:29:10;;;;;;;3.17;2.80;;;;;;;-0.72;76.77;147150.50;5124923;28;20049;-62
2023/03/09 01:31:36;;;;;;;3.75;2.80;;;;;;;-0.73;77.35;147149.25;5142640;27;20020;-62
2023/03/09 01:34:01;;;;;;;3.67;2.60;;;;;;;-0.77;76.60;147139.09;5130490;27;20027;-63
2023/03/09 01:36:27;;;;;;;3.45;2.60;;;;;;;-0.77;77.41;147139.09;5136949;27;20030;-63
2023/03/09 01:38:53;;;;;;;3.95;3.10;;;;;;;-0.69;77.86;147158.13;5150097;27;20102;-64
2023/03/09 01:41:20;;;;;;;2.88;2.58;;;;;;;-1.03;76.97;147074.28;5124139;28;20031;-64
2023/03/09 01:43:48;;;;;;;3.35;2.70;;;;;;;-0.73;77.21;147147.97;5151646;27;20058;-63
2023/03/09 01:46:19;;;;;;;3.92;2.75;;;;;;;-0.80;76.95;147130.16;5134241;28;20031;-65
2023/03/09 01:48:47;;;;;;;5.30;2.97;;;;;;;-0.82;76.83;147126.38;5130348;27;20034;-64
2023/03/09 01:51:13;;;;;;;5.82;3.20;;;;;;;-0.82;76.34;147125.09;5133984;28;20110;-63
2023/03/09 01:53:40;;;;;;;4.07;3.10;;;;;;;-0.92;76.68;147100.97;5123206;28;20028;-64
2023/03/09 01:56:06;;;;;;;3.20;2.70;;;;;;;-1.02;77.10;147075.56;5114763;27;20022;-64
2023/03/09 01:58:33;;;;;;;3.53;2.70;;;;;;;-0.95;77.60;147093.34;5151550;27;20026;-65
2023/03/09 02:00:59;;;;;;;3.67;3.05;;;;;;;-0.96;77.35;147090.78;5131508;27;20263;-64
2023/03/09 02:03:33;;;;;;;3.83;2.95;;;;;;;-0.95;77.96;147094.59;5146440;27;20020;-64
2023/03/09 02:06:05;;;;;;;4.07;3.35;;;;;;;-1.09;77.66;147059.03;5132040;27;20022;-64
2023/03/09 02:08:32;;;;;;;3.95;3.25;;;;;;;-0.96;77.99;147090.78;5139932;27;20281;-66
2023/03/09 02:11:03;;;;;;;4.35;2.78;;;;;;;-1.01;77.67;147078.06;5151476;27;20027;-64
2023/03/09 02:13:32;;;;;;;3.85;3.33;;;;;;;-1.14;77.17;147046.31;5146365;27;20043;-63
2023/03/09 02:15:58;;;;;;;4.30;2.70;;;;;;;-0.97;77.71;147089.53;5137293;27;20031;-64
2023/03/09 02:18:24;;;;;;;4.80;3.03;;;;;;;-0.87;76.77;147114.94;5150971;27;20030;-63
2023/03/09 02:20:55;;;;;;;3.92;2.78;;;;;;;-1.02;76.72;147076.81;5137208;27;20208;-63
2023/03/09 02:23:44;;;;;;;3.10;2.53;;;;;;;-1.02;77.12;147076.81;5122703;27;20054;-63
2023/03/09 02:26:23;;;;;;;3.67;2.97;;;;;;;-1.00;77.03;147081.88;5138095;27;20038;-63
2023/03/09 02:28:49;;;;;;;4.60;2.90;;;;;;;-1.10;77.40;147057.78;5106884;28;20036;-64
2023/03/09 02:31:16;;;;;;;5.22;2.78;;;;;;;-1.00;76.62;147081.88;5136884;27;20034;-64
2023/03/09 02:33:42;;;;;;;3.95;2.88;;;;;;;-1.04;75.64;147071.75;5134960;27;20023;-62
2023/03/09 02:36:08;;;;;;;3.97;2.72;;;;;;;-1.25;77.35;147020.94;5146630;27;20022;-64
2023/03/09 02:38:33;;;;;;;3.55;2.55;;;;;;;-1.23;76.32;147026.03;5159220;27;20025;-63
2023/03/09 02:41:01;;;;;;;2.95;2.70;;;;;;;-1.14;76.95;147047.63;5145207;27;20027;-64
2023/03/09 02:43:34;;;;;;;4.05;2.90;;;;;;;-1.30;77.11;147008.22;5144186;27;20019;-64
2023/03/09 02:45:59;;;;;;;4.68;2.67;;;;;;;-1.43;76.68;146975.22;5138038;27;20338;-63
2023/03/09 02:48:25;;;;;;;3.45;2.30;;;;;;;-1.39;77.83;146985.38;5150343;27;20090;-64
2023/03/09 02:50:50;;;;;;;6.70;2.58;;;;;;;-1.41;76.94;146981.56;5156416;27;20220;-64
2023/03/09 02:53:16;;;;;;;4.57;2.85;;;;;;;-1.47;77.94;146966.34;5145552;27;20360;-64
2023/03/09 02:55:42;;;;;;;3.42;2.40;;;;;;;-1.54;76.61;146947.28;5144231;27;20478;-64
2023/03/09 02:58:07;;;;;;;3.17;2.63;;;;;;;-1.44;76.82;146972.66;5143122;27;20023;-64
2023/03/09 03:00:33;;;;;;;5.00;2.72;;;;;;;-1.54;76.72;146947.28;5133970;27;20096;-64
2023/03/09 03:02:59;;;;;;;3.08;2.50;;;;;;;-1.49;77.23;146960.00;5145377;27;20023;-64
2023/03/09 03:05:24;;;;;;;3.28;2.65;;;;;;;-1.54;76.60;146947.28;5143318;27;20023;-62
2023/03/09 03:07:50;;;;;;;3.05;2.35;;;;;;;-1.61;77.48;146930.75;5161499;27;20086;-64
2023/03/09 03:10:16;;;;;;;3.72;2.30;;;;;;;-1.51;76.98;146956.19;5153191;27;20123;-63
2023/03/09 03:12:42;;;;;;;2.72;2.40;;;;;;;-1.43;75.77;146975.22;5151299;27;20023;-63
2023/03/09 03:15:08;;;;;;;3.55;2.40;;;;;;;-1.60;76.19;146934.56;5154334;27;20026;-62
2023/03/09 03:17:34;;;;;;;2.92;2.25;;;;;;;-1.68;75.79;146914.28;5124086;27;20358;-64
2023/03/09 03:20:00;;;;;;;3.55;2.47;;;;;;;-1.65;76.49;146921.91;5144319;27;20086;-63
2023/03/09 03:22:25;;;;;;;2.90;2.53;;;;;;;-1.70;77.48;146907.94;5144058;27;20249;-62
2023/03/09 03:24:51;;;;;;;4.07;2.20;;;;;;;-1.82;78.23;146880.00;5144603;27;20371;-64
2023/03/09 03:27:17;;;;;;;2.25;1.83;;;;;;;-1.78;75.87;146888.88;5143872;27;20066;-63
2023/03/09 03:29:43;;;;;;;6.65;2.75;;;;;;;-1.56;77.04;146944.72;5144444;27;20026;-63
2023/03/09 03:32:08;;;;;;;6.50;2.45;;;;;;;-1.78;75.56;146888.88;5142415;27;20022;-63
2023/03/09 03:34:34;;;;;;;3.30;2.30;;;;;;;-1.78;76.02;146888.88;5153646;27;20042;-64
2023/03/09 03:37:00;;;;;;;3.53;2.50;;;;;;;-1.71;76.28;146906.69;5143322;27;20019;-64
2023/03/09 03:39:26;;;;;;;2.70;2.17;;;;;;;-1.79;75.49;146886.38;5144767;27;20212;-63
2023/03/09 03:41:51;;;;;;;2.97;2.13;;;;;;;-1.80;74.68;146883.81;5143923;27;20122;-63
2023/03/09 03:44:17;;;;;;;3.03;2.15;;;;;;;-1.66;74.69;146918.09;5145294;27;20027;-62
2023/03/09 03:46:42;;;;;;;3.15;2.50;;;;;;;-1.69;74.84;146911.75;5146689;27;20184;-63
2023/03/09 03:49:08;;;;;;;3.80;2.22;;;;;;;-1.79;74.99;146886.38;5146053;27;20292;-63
2023/03/09 03:51:33;;;;;;;3.63;1.88;;;;;;;-1.67;74.07;146916.81;5148734;27;20243;-63
2023/03/09 03:53:59;;;;;;;3.35;2.35;;;;;;;-1.75;74.26;146897.78;5115653;27;20038;-63
2023/03/09 03:56:24;;;;;;;4.80;2.58;;;;;;;-1.67;74.25;146915.56;5132904;27;20237;-63
2023/03/09 03:58:50;;;;;;;3.20;2.45;;;;;;;-1.79;74.58;146887.63;5149847;27;20051;-63
2023/03/09 04:01:16;;;;;;;3.22;2.00;;;;;;;-1.94;75.37;146849.53;5145144;27;20027;-63
2023/03/09 04:03:41;;;;;;;3.80;2.25;;;;;;;-1.98;74.17;146839.38;5143853;27;20038;-64
2023/03/09 04:06:07;;;;;;;2.92;2.13;;;;;;;-2.04;74.78;146824.16;5124414;27;20068;-62
2023/03/09 04:08:32;;;;;;;3.88;2.08;;;;;;;-1.95;74.35;146848.28;5143874;27;20043;-64
2023/03/09 04:10:59;;;;;;;3.28;2.33;;;;;;;-1.88;74.05;146864.78;5136004;27;20057;-64
2023/03/09 04:13:24;;;;;;;3.22;2.00;;;;;;;-1.89;73.83;146861.00;5146301;27;20027;-64
2023/03/09 04:15:50;;;;;;;4.90;2.03;;;;;;;-1.92;74.04;146855.88;5136781;27;20094;-64
2023/03/09 04:18:15;;;;;;;3.53;2.08;;;;;;;-1.92;74.45;146855.88;5128509;27;20019;-65
2023/03/09 04:20:43;;;;;;;3.60;2.45;;;;;;;-2.04;74.69;146824.16;5105229;27;20299;-62
2023/03/09 04:23:10;;;;;;;2.70;2.17;;;;;;;-1.89;73.40;146862.25;5145629;27;20087;-62
2023/03/09 04:25:35;;;;;;;2.47;2.10;;;;;;;-1.97;72.55;146843.19;5138655;27;20083;-63
2023/03/09 04:28:02;;;;;;;2.42;1.95;;;;;;;-1.93;73.04;146852.09;5152299;27;20039;-64
2023/03/09 04:30:27;;;;;;;3.40;2.28;;;;;;;-1.93;73.22;146853.34;5145550;27;20054;-63
2023/03/09 04:32:53;;;;;;;4.50;2.13;;;;;;;-2.04;73.36;146825.41;5139587;27;20322;-62
2023/03/09 04:35:19;;;;;;;3.72;2.53;;;;;;;-2.00;74.16;146835.56;5146535;27;20031;-64
2023/03/09 04:37:45;;;;;;;4.43;2.45;;;;;;;-1.85;73.82;146872.41;5124561;28;20026;-63
2023/03/09 04:40:11;;;;;;;3.00;2.03;;;;;;;-1.82;73.45;146878.75;5143960;27;20256;-64
2023/03/09 04:42:37;;;;;;;4.63;2.60;;;;;;;-1.82;73.06;146880.00;5146145;27;20019;-64
2023/03/09 04:45:04;;;;;;;5.80;2.30;;;;;;;-1.95;72.71;146847.03;5125029;27;20346;-65
2023/03/09 04:47:30;;;;;;;3.83;2.90;;;;;;;-2.08;73.57;146815.31;5131168;27;20020;-65
2023/03/09 04:49:55;;;;;;;3.30;2.30;;;;;;;-2.05;73.07;146822.91;5138407;28;20038;-64
2023/03/09 04:52:21;;;;;;;2.30;2.03;;;;;;;-2.02;73.35;146829.22;5154214;27;20027;-64
2023/03/09 04:54:47;;;;;;;3.03;2.00;;;;;;;-2.05;72.48;146822.91;5148821;27;20045;-63
2023/03/09 04:57:13;;;;;;;3.40;2.20;;;;;;;-1.93;72.46;146852.09;5144133;27;20027;-64
2023/03/09 04:59:39;;;;;;;3.90;2.30;;;;;;;-1.95;72.73;146848.28;5145902;27;20047;-64
2023/03/09 05:02:05;;;;;;;3.72;2.50;;;;;;;-1.92;73.73;146854.63;5141395;27;20030;-64
2023/03/09 05:04:31;;;;;;;4.53;2.63;;;;;;;-1.77;72.31;146891.41;5124548;28;20030;-65
2023/03/09 05:06:56;;;;;;;4.55;2.40;;;;;;;-1.96;73.13;146845.72;5146145;27;20050;-64
2023/03/09 05:09:22;;;;;;;4.30;2.40;;;;;;;-2.07;72.70;146817.81;5127683;27;20016;-64
2023/03/09 05:11:51;;;;;;;3.70;2.50;;;;;;;-2.00;72.01;146835.56;5150233;27;20065;-65
2023/03/09 05:14:18;;;;;;;3.75;2.42;;;;;;;-1.78;72.64;146890.16;5148607;27;20082;-66
2023/03/09 05:16:44;;;;;;;4.88;2.80;;;;;;;-1.78;72.78;146888.88;5122517;28;20030;-64
2023/03/09 05:19:11;;;;;;;3.85;2.47;;;;;;;-1.88;72.63;146863.50;5130000;28;20086;-64
2023/03/09 05:21:37;;;;;;;3.17;2.50;;;;;;;-1.92;72.43;146855.88;5147125;27;20018;-63
2023/03/09 05:24:04;;;;;;;5.03;2.92;;;;;;;-1.75;72.54;146896.53;5113635;28;20054;-64
2023/03/09 05:26:30;;;;;;;4.25;2.22;;;;;;;-1.63;71.90;146926.97;5136092;28;20035;-63
2023/03/09 05:28:55;;;;;;;5.35;2.30;;;;;;;-1.63;70.68;146926.97;5157943;27;20045;-63
2023/03/09 05:31:21;;;;;;;3.85;2.20;;;;;;;-1.64;70.07;146923.16;5148160;27;20026;-64
2023/03/09 05:33:47;;;;;;;3.13;2.30;;;;;;;-1.61;72.18;146932.06;5150779;27;20033;-65
2023/03/09 05:36:26;;;;;;;4.63;2.53;;;;;;;-1.50;71.95;146957.44;5155530;27;20084;-64
2023/03/09 05:38:52;;;;;;;4.40;2.20;;;;;;;-1.41;70.03;146980.28;5149981;27;20082;-63
2023/03/09 05:41:19;;;;;;;3.65;2.42;;;;;;;-1.40;68.58;146984.13;5146133;27;20030;-64
2023/03/09 05:43:45;;;;;;;4.13;2.00;;;;;;;-1.53;68.14;146949.84;5153474;27;20293;-64
2023/03/09 05:46:12;;;;;;;3.47;2.00;;;;;;;-1.47;69.53;146965.06;5147389;27;20039;-64
2023/03/09 05:48:39;;;;;;;4.00;2.45;;;;;;;-1.34;67.65;146998.09;5151210;27;20071;-65
2023/03/09 05:51:07;;;;;;;2.95;2.20;;;;;;;-1.23;68.24;147026.03;5145913;27;20110;-65
2023/03/09 05:53:33;;;;;;;4.80;1.92;;;;;;;-1.29;66.25;147010.78;5107842;27;20035;-65
2023/03/09 05:55:59;;;;;;;2.95;2.17;;;;;;;-1.07;68.14;147065.41;5119653;27;20023;-64
2023/03/09 05:58:25;;;;;;;3.83;2.47;;;;;;;-1.07;65.42;147064.09;5145724;27;20023;-64
2023/03/09 06:00:52;;;;;;;3.35;2.35;;;;;;;-0.87;65.72;147114.94;5137445;27;20071;-65
2023/03/09 06:03:18;;;;;;;6.20;2.15;;;;;;;-0.98;64.83;147087.00;5147455;27;20068;-65
2023/03/09 06:05:44;;;;;;;5.30;2.10;;;;;;;-0.81;65.06;147127.63;5159879;27;20253;-63
2023/03/09 06:08:11;;;;;;;2.45;2.00;;;;;;;-0.88;64.37;147112.38;5153747;27;20031;-64
2023/03/09 06:10:37;;;;;;;4.50;2.40;;;;;;;-0.71;63.56;147153.06;5155373;27;20093;-65
2023/03/09 06:13:03;;;;;;;6.10;1.88;;;;;;;-0.64;63.44;147169.56;5153361;27;20046;-64
2023/03/09 06:15:28;;;;;;;3.10;2.13;;;;;;;-0.39;64.28;147231.81;5143913;27;20023;-63
2023/03/09 06:17:54;;;;;;;5.32;2.53;;;;;;;-0.37;64.76;147236.88;5146073;27;20326;-64
2023/03/09 06:20:20;;;;;;;2.63;1.85;;;;;;;-0.24;63.32;147269.97;5125516;27;20035;-65
2023/03/09 06:22:46;;;;;;;5.78;2.53;;;;;;;-0.55;63.19;147193.69;5159949;27;20018;-66
2023/03/09 06:25:12;;;;;;;2.60;1.85;;;;;;;-0.33;63.31;147245.81;5157368;27;20327;-65
2023/03/09 06:27:38;;;;;;;3.33;2.20;;;;;;;-0.10;63.81;147304.31;5144525;27;20063;-64
2023/03/09 06:30:05;;;;;;;4.40;1.90;;;;;;;-0.28;63.03;147258.53;5145252;27;20027;-66
2023/03/09 06:32:34;;;;;;;3.90;2.00;;;;;;;-0.30;61.53;147254.72;5144930;27;20049;-65
2023/03/09 06:35:00;;;;;;;3.90;2.20;;;;;;;-0.27;62.75;147261.03;5145158;27;20037;-65
2023/03/09 06:37:26;;;;;;;2.65;2.03;;;;;;;-0.43;62.92;147221.66;5153749;27;20078;-65
2023/03/09 06:39:52;;;;;;;6.63;2.25;;;;;;;-0.57;63.05;147188.63;5145304;27;20283;-65
2023/03/09 06:42:18;;;;;;;3.15;2.10;;;;;;;-0.39;64.12;147233.09;5142915;27;20031;-65
2023/03/09 06:44:44;;;;;;;4.55;2.13;;;;;;;-0.14;63.80;147292.81;5142903;27;20027;-64
2023/03/09 06:47:11;;;;;;;3.30;2.28;;;;;;;0.02;63.75;147332.28;5143525;27;20107;-64
2023/03/09 06:49:36;;;;;;;3.35;2.33;;;;;;;0.09;61.94;147350.06;5144715;27;20027;-63
2023/03/09 06:52:03;;;;;;;3.70;2.38;;;;;;;0.02;61.08;147333.53;5138558;27;20231;-63
2023/03/09 06:54:28;;;;;;;4.22;2.10;;;;;;;-0.32;61.26;147249.63;5137865;27;20090;-64
2023/03/09 06:56:54;;;;;;;7.00;2.25;;;;;;;-0.26;61.52;147264.84;5144843;27;20031;-63
2023/03/09 06:59:20;;;;;;;2.40;1.83;;;;;;;-0.09;62.81;147305.56;5144433;27;20358;-63
2023/03/09 07:01:45;;;;;;;5.30;2.28;;;;;;;0.08;62.29;147348.75;5142182;27;20027;-63
2023/03/09 07:04:11;;;;;;;6.47;2.10;;;;;;;0.17;62.14;147370.38;5142468;27;20319;-64
2023/03/09 07:06:37;;;;;;;4.45;2.40;;;;;;;0.11;61.23;147356.38;5143908;27;20046;-64
2023/03/09 07:09:03;;;;;;;2.33;2.00;;;;;;;0.06;60.80;147342.41;5144090;27;20036;-64
2023/03/09 07:11:29;;;;;;;2.83;1.90;;;;;;;0.25;62.17;147390.72;5141255;27;20050;-64
2023/03/09 07:13:54;;;;;;;4.15;2.47;;;;;;;0.15;60.89;147366.56;5143599;27;20035;-65
2023/03/09 07:16:22;;;;;;;5.13;2.30;;;;;;;0.22;61.10;147381.84;5143549;27;20436;-64
2023/03/09 07:18:48;;;;;;;4.03;1.88;;;;;;;0.20;59.73;147378.03;5143008;27;20058;-64
2023/03/09 07:21:13;;;;;;;4.47;2.05;;;;;;;0.29;61.10;147400.91;5125366;27;20034;-64
2023/03/09 07:23:39;;;;;;;2.92;1.95;;;;;;;0.31;58.24;147404.72;5141937;27;20054;-63
2023/03/09 07:26:05;;;;;;;4.38;2.00;;;;;;;0.23;56.94;147384.38;5143444;27;20338;-64
2023/03/09 07:28:31;;;;;;;3.22;1.70;;;;;;;0.32;57.56;147407.28;5143341;27;20046;-65
2023/03/09 07:30:56;;;;;;;3.45;2.28;;;;;;;0.84;58.02;147535.72;5143186;27;20350;-65
2023/03/09 07:33:22;;;;;;;2.60;2.13;;;;;;;1.21;56.08;147627.34;5143147;27;20018;-64
2023/03/09 07:35:47;;;;;;;4.97;2.20;;;;;;;1.18;53.78;147619.72;5142210;27;20027;-64
2023/03/09 07:38:13;;;;;;;3.53;1.83;;;;;;;1.68;55.25;147743.19;5142808;27;20027;-65
2023/03/09 07:40:39;;;;;;;3.95;2.42;;;;;;;1.11;54.10;147601.91;5145318;27;20067;-64
2023/03/09 07:43:05;;;;;;;3.95;2.20;;;;;;;0.89;54.25;147547.22;5143773;27;20050;-64
2023/03/09 07:45:31;;;;;;;2.75;1.80;;;;;;;0.60;54.63;147475.94;5142352;27;20068;-64
2023/03/09 07:47:57;;;;;;;4.40;1.80;;;;;;;0.57;56.41;147469.63;5143113;27;20043;-65
2023/03/09 07:50:23;;;;;;;2.75;1.90;;;;;;;0.61;55.08;147478.50;5144186;27;20027;-65
2023/03/09 07:52:49;;;;;;;1.98;1.65;;;;;;;0.47;54.17;147444.13;5141292;27;20347;-64
2023/03/09 07:55:15;;;;;;;4.05;2.05;;;;;;;0.81;55.78;147528.09;5143886;27;20044;-65
2023/03/09 07:57:42;;;;;;;4.10;2.20;;;;;;;0.96;55.56;147565.03;5143207;27;20072;-65
2023/03/09 08:00:13;;;;;;;5.38;1.85;;;;;;;1.12;56.42;147605.72;5141845;27;20019;-65
2023/03/09 08:02:41;;;;;;;3.30;1.95;;;;;;;0.90;54.66;147549.72;5143850;27;20039;-67
2023/03/09 08:05:09;;;;;;;8.05;2.75;;;;;;;1.12;55.29;147605.72;5143145;27;20195;-66
2023/03/09 08:07:35;;;;;;;2.95;2.17;;;;;;;1.18;55.82;147619.72;5142728;27;20043;-66
2023/03/09 08:10:02;;;;;;;1.80;1.65;;;;;;;0.94;53.14;147561.22;5130601;27;20034;-66
2023/03/09 08:12:27;;;;;;;4.82;2.05;;;;;;;1.07;55.44;147593.03;5127243;27;20035;-65
2023/03/09 08:14:53;;;;;;;3.03;2.13;;;;;;;1.00;54.61;147576.47;5155305;27;20119;-64
2023/03/09 08:17:18;;;;;;;3.90;2.13;;;;;;;1.05;55.95;147586.66;5109673;28;20035;-65
2023/03/09 08:19:44;;;;;;;3.80;2.35;;;;;;;1.24;54.34;147633.72;5150933;27;20061;-65
2023/03/09 08:22:10;;;;;;;3.67;2.10;;;;;;;1.07;52.56;147593.03;5149986;27;20029;-65
2023/03/09 08:24:36;;;;;;;3.97;2.00;;;;;;;1.06;53.06;147590.47;5146072;27;20331;-66
2023/03/09 08:27:01;;;;;;;2.92;1.73;;;;;;;1.27;52.48;147641.34;5147648;27;20042;-65
2023/03/09 08:29:27;;;;;;;4.07;1.95;;;;;;;1.29;52.77;147646.47;5124779;27;20031;-65
2023/03/09 08:31:52;;;;;;;4.38;2.35;;;;;;;1.20;53.60;147626.09;5139860;27;20046;-65
2023/03/09 08:34:19;;;;;;;3.55;2.05;;;;;;;1.39;54.25;147671.91;5130922;27;20035;-65
2023/03/09 08:36:45;;;;;;;5.25;1.95;;;;;;;1.57;52.22;147715.19;5147630;27;20065;-64
2023/03/09 08:39:11;;;;;;;3.83;1.65;;;;;;;1.36;51.72;147665.53;5125906;27;20085;-65
2023/03/09 08:41:37;;;;;;;2.47;1.73;;;;;;;1.43;50.97;147682.09;5104183;28;20192;-65
2023/03/09 08:44:02;;;;;;;5.28;1.73;;;;;;;1.57;51.46;147716.47;5121796;28;20027;-65
2023/03/09 08:46:28;;;;;;;2.70;1.50;;;;;;;1.29;50.65;147647.72;5139096;27;20090;-64
2023/03/09 08:48:56;;;;;;;3.35;1.60;;;;;;;1.46;49.83;147688.47;5130310;27;20057;-64
2023/03/09 08:51:22;;;;;;;2.72;1.75;;;;;;;1.47;52.04;147690.97;5154063;27;20105;-65
2023/03/09 08:53:48;;;;;;;2.53;1.60;;;;;;;1.29;49.80;147646.47;5149290;27;20036;-64
2023/03/09 08:56:13;;;;;;;2.58;1.60;;;;;;;1.24;49.28;147635.03;5157781;27;20062;-64
2023/03/09 08:58:40;;;;;;;3.38;1.75;;;;;;;1.17;49.95;147618.47;5137648;28;20023;-63
2023/03/09 09:01:08;;;;;;;5.80;1.85;;;;;;;1.23;48.18;147632.47;5131177;28;20035;-64
2023/03/09 09:03:34;;;;;;;2.63;1.40;;;;;;;1.42;50.99;147679.53;5139219;27;20035;-64
2023/03/09 09:06:09;;;;;;;3.53;1.83;;;;;;;1.69;50.56;147747.00;5130382;27;20385;-65
2023/03/09 09:08:34;;;;;;;1.67;1.58;;;;;;;1.44;49.01;147684.66;5161073;27;20025;-64
2023/03/09 09:11:14;;;;;;;3.97;2.13;;;;;;;1.48;49.61;147694.84;5152328;27;20320;-64
2023/03/09 09:13:42;;;;;;;4.82;1.95;;;;;;;1.43;49.17;147682.09;5158397;27;20054;-65
2023/03/09 09:16:13;;;;;;;5.05;1.90;;;;;;;1.61;50.10;147726.66;5157158;27;20038;-64
2023/03/09 09:18:39;;;;;;;4.53;2.00;;;;;;;1.93;50.71;147804.34;5149010;27;20191;-64
2023/03/09 09:21:07;;;;;;;2.65;1.80;;;;;;;1.98;51.29;147817.03;5159190;27;20106;-65
2023/03/09 09:23:34;;;;;;;3.75;1.80;;;;;;;1.79;49.84;147771.19;5156784;27;20057;-65
2023/03/09 09:26:01;;;;;;;4.22;1.80;;;;;;;1.97;52.27;147814.53;5161358;27;20132;-64
2023/03/09 09:28:26;;;;;;;4.93;1.60;;;;;;;2.07;51.01;147840.00;5155451;27;20031;-64
2023/03/09 09:31:12;;;;;;;5.22;1.90;;;;;;;1.82;48.75;147778.84;5128365;27;20062;-63
2023/03/09 09:33:38;;;;;;;2.63;1.73;;;;;;;1.80;48.71;147773.75;5140450;27;20036;-64
2023/03/09 09:36:11;;;;;;;5.55;2.08;;;;;;;1.81;51.41;147775.03;5151641;27;20050;-65
2023/03/09 09:38:38;;;;;;;2.20;1.88;;;;;;;1.65;49.87;147736.81;5162350;27;20108;-65
2023/03/09 09:41:20;;;;;;;1.65;1.40;;;;;;;1.48;51.70;147693.53;5139565;27;20046;-64
2023/03/09 09:43:52;;;;;;;4.70;1.42;;;;;;;1.54;48.55;147710.09;5143603;27;20315;-66
2023/03/09 09:46:24;;;;;;;;;;;;;;;1.69;50.79;147747.00;5150663;27;20093;-64
2023/03/09 09:49:05;;;;;;;3.03;1.30;;;;;;;1.61;49.39;147726.66;5137894;27;19942;-64
2023/03/09 09:52:05;;;;;;;3.35;1.63;;;;;;;1.39;48.02;147671.91;5145845;27;20041;-64
2023/03/09 09:54:37;;;;;;;3.78;1.45;;;;;;;1.21;48.96;147627.34;5148042;27;20075;-64
2023/03/09 09:57:25;;;;;;;3.80;1.67;;;;;;;1.20;48.82;147626.09;5142790;27;20078;-65
2023/03/09 10:00:39;;;;;;;2.72;1.50;;;;;;;1.24;50.06;147633.72;5141024;27;20063;-65
2023/03/09 10:03:39;;;;;;;1.70;1.42;;;;;;;1.05;50.48;147587.91;5119007;27;20046;-64
2023/03/09 10:06:18;;;;;;;2.28;1.55;;;;;;;1.34;50.76;147659.16;5091288;27;20031;-65
2023/03/09 10:09:10;;;;;;;2.17;1.42;;;;;;;1.02;50.90;147581.53;5144972;27;20015;-65
2023/03/09 10:11:41;;;;;;;2.67;1.35;;;;;;;1.13;51.82;147608.28;5143875;27;20024;-65
2023/03/09 10:14:25;;;;;;;3.00;1.47;;;;;;;1.10;50.94;147600.66;5140604;27;20058;-65
2023/03/09 10:17:16;;;;;;;4.43;1.60;;;;;;;1.33;53.39;147656.66;5144926;27;20031;-64
2023/03/09 10:19:47;;;;;;;2.88;1.55;;;;;;;1.27;52.11;147642.66;5125435;27;20030;-65
2023/03/09 10:22:12;;;;;;;1.83;1.52;;;;;;;1.25;53.59;147636.28;5152938;27;20087;-65
2023/03/09 10:24:50;;;;;;;3.58;1.63;;;;;;;1.15;53.02;147613.34;5149986;27;20051;-65
2023/03/09 10:27:41;;;;;;;3.25;1.65;;;;;;;1.22;54.51;147628.66;5145500;27;20283;-65
2023/03/09 10:30:10;;;;;;;3.50;1.77;;;;;;;0.98;55.62;147570.09;5142076;27;20070;-64
2023/03/09 10:33:01;;;;;;;2.28;1.55;;;;;;;1.06;58.15;147589.19;5145116;27;20367;-64
2023/03/09 10:35:30;;;;;;;1.35;1.25;;;;;;;1.03;56.73;147584.09;5110759;28;20083;-65
2023/03/09 10:37:55;;;;;;;6.05;1.33;;;;;;;1.03;56.69;147584.09;5139167;27;20096;-63
2023/03/09 10:40:25;;;;;;;2.33;1.85;;;;;;;0.94;57.12;147559.91;5139467;27;20027;-65
2023/03/09 10:42:51;;;;;;;4.60;1.40;;;;;;;1.10;58.89;147600.66;5129376;27;20038;-65
2023/03/09 10:45:24;;;;;;;4.32;1.75;;;;;;;1.01;59.43;147577.72;5112258;27;20288;-65
2023/03/09 10:48:08;;;;;;;2.63;1.60;;;;;;;0.72;59.18;147506.47;5124276;27;20063;-64
2023/03/09 10:50:40;;;;;;;1.73;1.42;;;;;;;0.74;60.53;147511.59;5145624;27;20041;-64
2023/03/09 10:53:35;;;;;;;2.88;1.38;;;;;;;0.69;61.09;147498.84;5156561;27;20043;-64
2023/03/09 10:56:18;;;;;;;3.45;1.70;;;;;;;0.80;62.85;147526.84;5147661;27;20102;-65
2023/03/09 10:58:44;;;;;;;4.03;1.45;;;;;;;0.99;62.26;147573.91;5155713;27;20103;-64
2023/03/09 11:01:13;;;;;;;4.28;1.80;;;;;;;0.80;64.45;147525.59;5144242;27;20031;-65
2023/03/09 11:03:41;;;;;;;4.03;1.50;;;;;;;0.89;65.87;147548.47;5146620;27;20054;-65
2023/03/09 11:06:12;;;;;;;2.75;1.60;;;;;;;0.58;67.91;147472.13;5154711;27;20307;-64
2023/03/09 11:08:41;;;;;;;5.60;1.90;;;;;;;0.42;68.38;147432.69;5148264;27;20027;-64
2023/03/09 11:11:19;;;;;;;3.30;1.83;;;;;;;0.52;69.48;147456.88;5157170;27;20219;-63
2023/03/09 11:13:56;;;;;;;2.63;1.60;;;;;;;0.34;71.28;147412.34;5144951;27;20216;-64
2023/03/09 11:16:26;;;;;;;4.40;1.60;;;;;;;0.58;72.53;147472.13;5134441;27;20063;-64
2023/03/09 11:19:27;;;;;;;2.22;2.03;;;;;;;0.57;72.08;147469.63;5151403;27;20228;-65
2023/03/09 11:21:59;;;;;;;2.80;1.80;;;;;;;0.16;73.71;147369.13;5091594;27;20038;-64
2023/03/09 11:24:33;;;;;;;4.03;1.73;;;;;;;0.15;73.74;147365.31;5134455;27;20242;-64
2023/03/09 11:27:22;;;;;;;4.38;2.15;;;;;;;-0.11;74.29;147301.75;5140047;27;20042;-63
2023/03/09 11:30:13;;;;;;;3.58;1.85;;;;;;;0.21;74.33;147379.28;5156980;27;20035;-64
2023/03/09 11:32:39;;;;;;;4.75;2.00;;;;;;;0.42;74.86;147432.69;5143938;27;20031;-64
2023/03/09 11:35:12;;;;;;;4.85;2.33;;;;;;;0.38;75.64;147421.25;5138508;27;20079;-65